sensor_id;sensor_type;location;lat;lon;timestamp;P1;durP1;ratioP1;P2;durP2;ratioP2
31262;SDS011;17892;52.080;9.006;2023-04-25T00:01:24;5.15;;;1.98;;
31262;SDS011;17892;52.080;9.006;2023-04-25T00:03:50;7.40;;;2.33;;
31262;SDS011;17892;52.080;9.006;2023-04-25T00:06:15;5.60;;;2.30;;
31262;SDS011;17892;52.080;9.006;2023-04-25T00:08:42;5.10;;;2.28;;
31262;SDS011;17892;52.080;9.006;2023-04-25T00:11:08;7.65;;;2.53;;
31262;SDS011;17892;52.080;9.006;2023-04-25T00:13:34;7.13;;;3.05;;
31262;SDS011;17892;52.080;9.006;2023-04-25T00:16:00;6.88;;;2.58;;
31262;SDS011;17892;52.080;9.006;2023-04-25T00:18:27;7.50;;;2.95;;
31262;SDS011;17892;52.080;9.006;2023-04-25T00:20:54;8.05;;;3.00;;
31262;SDS011;17892;52.080;9.006;2023-04-25T00:23:20;5.30;;;2.53;;
31262;SDS011;17892;52.080;9.006;2023-04-25T00:25:47;8.30;;;3.67;;
31262;SDS011;17892;52.080;9.006;2023-04-25T00:28:14;7.45;;;2.78;;
31262;SDS011;17892;52.080;9.006;2023-04-25T00:30:40;11.20;;;3.50;;
31262;SDS011;17892;52.080;9.006;2023-04-25T00:33:07;9.77;;;2.88;;
31262;SDS011;17892;52.080;9.006;2023-04-25T00:35:33;6.88;;;2.80;;
31262;SDS011;17892;52.080;9.006;2023-04-25T00:37:59;10.85;;;3.25;;
31262;SDS011;17892;52.080;9.006;2023-04-25T00:40:25;10.40;;;3.55;;
31262;SDS011;17892;52.080;9.006;2023-04-25T00:42:52;7.95;;;3.05;;
31262;SDS011;17892;52.080;9.006;2023-04-25T00:45:18;10.27;;;3.33;;
31262;SDS011;17892;52.080;9.006;2023-04-25T00:47:44;7.78;;;3.17;;
31262;SDS011;17892;52.080;9.006;2023-04-25T00:50:11;10.57;;;3.28;;
31262;SDS011;17892;52.080;9.006;2023-04-25T00:52:37;7.35;;;2.60;;
31262;SDS011;17892;52.080;9.006;2023-04-25T00:55:07;9.30;;;3.05;;
31262;SDS011;17892;52.080;9.006;2023-04-25T00:57:33;10.73;;;4.07;;
31262;SDS011;17892;52.080;9.006;2023-04-25T00:59:59;8.27;;;3.22;;
31262;SDS011;17892;52.080;9.006;2023-04-25T01:02:26;4.93;;;2.33;;
31262;SDS011;17892;52.080;9.006;2023-04-25T01:04:52;5.72;;;2.58;;
31262;SDS011;17892;52.080;9.006;2023-04-25T01:07:18;10.13;;;3.60;;
31262;SDS011;17892;52.080;9.006;2023-04-25T01:09:44;9.13;;;3.30;;
31262;SDS011;17892;52.080;9.006;2023-04-25T01:12:10;8.80;;;4.05;;
31262;SDS011;17892;52.080;9.006;2023-04-25T01:14:37;8.25;;;3.30;;
31262;SDS011;17892;52.080;9.006;2023-04-25T01:17:03;7.68;;;3.45;;
31262;SDS011;17892;52.080;9.006;2023-04-25T01:19:28;10.07;;;3.60;;
31262;SDS011;17892;52.080;9.006;2023-04-25T01:21:54;9.27;;;3.60;;
31262;SDS011;17892;52.080;9.006;2023-04-25T01:24:20;7.18;;;3.13;;
31262;SDS011;17892;52.080;9.006;2023-04-25T01:26:46;8.63;;;2.65;;
31262;SDS011;17892;52.080;9.006;2023-04-25T01:29:16;6.72;;;3.33;;
31262;SDS011;17892;52.080;9.006;2023-04-25T01:31:43;8.43;;;3.05;;
31262;SDS011;17892;52.080;9.006;2023-04-25T01:34:10;9.32;;;3.40;;
31262;SDS011;17892;52.080;9.006;2023-04-25T01:36:37;7.88;;;3.03;;
31262;SDS011;17892;52.080;9.006;2023-04-25T01:39:02;7.60;;;3.35;;
31262;SDS011;17892;52.080;9.006;2023-04-25T01:41:28;7.68;;;3.33;;
31262;SDS011;17892;52.080;9.006;2023-04-25T01:43:54;9.20;;;3.70;;
31262;SDS011;17892;52.080;9.006;2023-04-25T01:46:22;9.18;;;3.47;;
31262;SDS011;17892;52.080;9.006;2023-04-25T01:48:47;10.88;;;4.95;;
31262;SDS011;17892;52.080;9.006;2023-04-25T01:51:13;10.50;;;3.88;;
31262;SDS011;17892;52.080;9.006;2023-04-25T01:53:40;7.57;;;3.28;;
31262;SDS011;17892;52.080;9.006;2023-04-25T01:56:06;7.70;;;3.38;;
31262;SDS011;17892;52.080;9.006;2023-04-25T01:58:31;7.38;;;3.70;;
31262;SDS011;17892;52.080;9.006;2023-04-25T02:00:57;10.20;;;4.75;;
31262;SDS011;17892;52.080;9.006;2023-04-25T02:03:23;10.98;;;3.35;;
31262;SDS011;17892;52.080;9.006;2023-04-25T02:05:49;6.55;;;2.90;;
31262;SDS011;17892;52.080;9.006;2023-04-25T02:08:16;7.93;;;3.28;;
31262;SDS011;17892;52.080;9.006;2023-04-25T02:10:42;5.75;;;2.28;;
31262;SDS011;17892;52.080;9.006;2023-04-25T02:13:08;5.97;;;2.30;;
31262;SDS011;17892;52.080;9.006;2023-04-25T02:15:34;7.85;;;2.85;;
31262;SDS011;17892;52.080;9.006;2023-04-25T02:17:59;7.20;;;2.58;;
31262;SDS011;17892;52.080;9.006;2023-04-25T02:20:26;5.60;;;2.65;;
31262;SDS011;17892;52.080;9.006;2023-04-25T02:22:53;8.23;;;2.97;;
31262;SDS011;17892;52.080;9.006;2023-04-25T02:25:19;5.75;;;2.65;;
31262;SDS011;17892;52.080;9.006;2023-04-25T02:27:46;4.43;;;2.25;;
31262;SDS011;17892;52.080;9.006;2023-04-25T02:30:12;6.32;;;2.53;;
31262;SDS011;17892;52.080;9.006;2023-04-25T02:32:38;6.10;;;2.58;;
31262;SDS011;17892;52.080;9.006;2023-04-25T02:35:05;5.63;;;2.30;;
31262;SDS011;17892;52.080;9.006;2023-04-25T02:37:32;7.00;;;2.53;;
31262;SDS011;17892;52.080;9.006;2023-04-25T02:40:00;7.03;;;2.40;;
31262;SDS011;17892;52.080;9.006;2023-04-25T02:42:26;5.00;;;2.22;;
31262;SDS011;17892;52.080;9.006;2023-04-25T02:44:52;8.77;;;2.45;;
31262;SDS011;17892;52.080;9.006;2023-04-25T02:47:18;6.07;;;2.15;;
31262;SDS011;17892;52.080;9.006;2023-04-25T02:49:44;8.80;;;3.17;;
31262;SDS011;17892;52.080;9.006;2023-04-25T02:52:10;5.55;;;1.73;;
31262;SDS011;17892;52.080;9.006;2023-04-25T02:54:37;7.28;;;1.83;;
31262;SDS011;17892;52.080;9.006;2023-04-25T02:57:04;9.75;;;2.50;;
31262;SDS011;17892;52.080;9.006;2023-04-25T02:59:30;10.20;;;2.22;;
31262;SDS011;17892;52.080;9.006;2023-04-25T03:01:55;8.93;;;2.10;;
31262;SDS011;17892;52.080;9.006;2023-04-25T03:04:21;3.90;;;1.67;;
31262;SDS011;17892;52.080;9.006;2023-04-25T03:06:48;6.43;;;1.92;;
31262;SDS011;17892;52.080;9.006;2023-04-25T03:09:15;6.82;;;2.13;;
31262;SDS011;17892;52.080;9.006;2023-04-25T03:11:41;5.55;;;1.60;;
31262;SDS011;17892;52.080;9.006;2023-04-25T03:14:06;5.40;;;1.70;;
31262;SDS011;17892;52.080;9.006;2023-04-25T03:16:32;7.20;;;1.45;;
31262;SDS011;17892;52.080;9.006;2023-04-25T03:18:58;4.57;;;1.77;;
31262;SDS011;17892;52.080;9.006;2023-04-25T03:21:24;4.97;;;1.55;;
31262;SDS011;17892;52.080;9.006;2023-04-25T03:23:51;5.13;;;1.60;;
31262;SDS011;17892;52.080;9.006;2023-04-25T03:26:17;5.35;;;1.38;;
31262;SDS011;17892;52.080;9.006;2023-04-25T03:28:42;5.03;;;1.48;;
31262;SDS011;17892;52.080;9.006;2023-04-25T03:31:08;5.30;;;1.20;;
31262;SDS011;17892;52.080;9.006;2023-04-25T03:33:34;6.90;;;1.63;;
31262;SDS011;17892;52.080;9.006;2023-04-25T03:36:00;5.72;;;2.13;;
31262;SDS011;17892;52.080;9.006;2023-04-25T03:38:25;8.63;;;1.92;;
31262;SDS011;17892;52.080;9.006;2023-04-25T03:40:51;5.65;;;1.80;;
31262;SDS011;17892;52.080;9.006;2023-04-25T03:43:17;3.92;;;1.30;;
31262;SDS011;17892;52.080;9.006;2023-04-25T03:45:43;4.45;;;1.40;;
31262;SDS011;17892;52.080;9.006;2023-04-25T03:48:08;5.90;;;1.58;;
31262;SDS011;17892;52.080;9.006;2023-04-25T03:50:34;6.30;;;1.45;;
31262;SDS011;17892;52.080;9.006;2023-04-25T03:53:00;7.95;;;1.58;;
31262;SDS011;17892;52.080;9.006;2023-04-25T03:55:25;6.90;;;1.63;;
31262;SDS011;17892;52.080;9.006;2023-04-25T03:57:51;6.75;;;2.05;;
31262;SDS011;17892;52.080;9.006;2023-04-25T04:00:17;5.35;;;1.42;;
31262;SDS011;17892;52.080;9.006;2023-04-25T04:02:43;6.55;;;1.75;;
31262;SDS011;17892;52.080;9.006;2023-04-25T04:05:08;4.70;;;1.50;;
31262;SDS011;17892;52.080;9.006;2023-04-25T04:07:34;9.38;;;2.40;;
31262;SDS011;17892;52.080;9.006;2023-04-25T04:10:05;6.55;;;2.08;;
31262;SDS011;17892;52.080;9.006;2023-04-25T04:12:32;8.05;;;2.20;;
31262;SDS011;17892;52.080;9.006;2023-04-25T04:14:58;5.85;;;1.90;;
31262;SDS011;17892;52.080;9.006;2023-04-25T04:17:24;11.00;;;2.03;;
31262;SDS011;17892;52.080;9.006;2023-04-25T04:19:50;9.15;;;2.25;;
31262;SDS011;17892;52.080;9.006;2023-04-25T04:22:15;9.43;;;2.83;;
31262;SDS011;17892;52.080;9.006;2023-04-25T04:24:41;9.10;;;2.03;;
31262;SDS011;17892;52.080;9.006;2023-04-25T04:27:11;5.32;;;1.98;;
31262;SDS011;17892;52.080;9.006;2023-04-25T04:29:37;10.90;;;2.17;;
31262;SDS011;17892;52.080;9.006;2023-04-25T04:32:03;9.43;;;2.08;;
31262;SDS011;17892;52.080;9.006;2023-04-25T04:34:29;4.97;;;2.10;;
31262;SDS011;17892;52.080;9.006;2023-04-25T04:36:56;5.35;;;1.98;;
31262;SDS011;17892;52.080;9.006;2023-04-25T04:39:22;7.78;;;1.90;;
31262;SDS011;17892;52.080;9.006;2023-04-25T04:41:48;6.78;;;2.08;;
31262;SDS011;17892;52.080;9.006;2023-04-25T04:44:13;10.25;;;2.40;;
31262;SDS011;17892;52.080;9.006;2023-04-25T04:46:39;6.82;;;1.63;;
31262;SDS011;17892;52.080;9.006;2023-04-25T04:49:08;6.65;;;1.83;;
31262;SDS011;17892;52.080;9.006;2023-04-25T04:51:35;7.30;;;1.70;;
31262;SDS011;17892;52.080;9.006;2023-04-25T04:54:03;4.93;;;2.08;;
31262;SDS011;17892;52.080;9.006;2023-04-25T04:56:29;8.23;;;2.38;;
31262;SDS011;17892;52.080;9.006;2023-04-25T04:58:56;6.50;;;1.70;;
31262;SDS011;17892;52.080;9.006;2023-04-25T05:01:22;4.90;;;1.27;;
31262;SDS011;17892;52.080;9.006;2023-04-25T05:03:48;7.63;;;1.60;;
31262;SDS011;17892;52.080;9.006;2023-04-25T05:06:14;6.13;;;1.80;;
31262;SDS011;17892;52.080;9.006;2023-04-25T05:08:42;7.88;;;2.10;;
31262;SDS011;17892;52.080;9.006;2023-04-25T05:11:07;5.22;;;1.52;;
31262;SDS011;17892;52.080;9.006;2023-04-25T05:13:33;5.38;;;1.33;;
31262;SDS011;17892;52.080;9.006;2023-04-25T05:15:59;4.97;;;1.30;;
31262;SDS011;17892;52.080;9.006;2023-04-25T05:18:24;8.18;;;1.80;;
31262;SDS011;17892;52.080;9.006;2023-04-25T05:20:50;7.13;;;1.70;;
31262;SDS011;17892;52.080;9.006;2023-04-25T05:23:15;5.90;;;2.08;;
31262;SDS011;17892;52.080;9.006;2023-04-25T05:25:41;4.75;;;1.45;;
31262;SDS011;17892;52.080;9.006;2023-04-25T05:28:07;7.05;;;1.92;;
31262;SDS011;17892;52.080;9.006;2023-04-25T05:30:33;10.93;;;1.70;;
31262;SDS011;17892;52.080;9.006;2023-04-25T05:32:59;7.63;;;1.65;;
31262;SDS011;17892;52.080;9.006;2023-04-25T05:35:25;7.53;;;2.42;;
31262;SDS011;17892;52.080;9.006;2023-04-25T05:37:51;7.07;;;1.65;;
31262;SDS011;17892;52.080;9.006;2023-04-25T05:40:17;7.68;;;1.95;;
31262;SDS011;17892;52.080;9.006;2023-04-25T05:42:42;8.60;;;2.08;;
31262;SDS011;17892;52.080;9.006;2023-04-25T05:45:08;7.03;;;2.40;;
31262;SDS011;17892;52.080;9.006;2023-04-25T05:47:34;8.15;;;2.33;;
31262;SDS011;17892;52.080;9.006;2023-04-25T05:50:00;8.18;;;2.10;;
31262;SDS011;17892;52.080;9.006;2023-04-25T05:52:26;6.38;;;1.90;;
31262;SDS011;17892;52.080;9.006;2023-04-25T05:54:51;9.50;;;2.63;;
31262;SDS011;17892;52.080;9.006;2023-04-25T05:57:24;5.80;;;1.98;;
31262;SDS011;17892;52.080;9.006;2023-04-25T05:59:51;7.40;;;2.38;;
31262;SDS011;17892;52.080;9.006;2023-04-25T06:02:20;6.78;;;2.20;;
31262;SDS011;17892;52.080;9.006;2023-04-25T06:04:47;7.15;;;2.40;;
31262;SDS011;17892;52.080;9.006;2023-04-25T06:07:16;7.35;;;1.73;;
31262;SDS011;17892;52.080;9.006;2023-04-25T06:09:42;4.30;;;1.70;;
31262;SDS011;17892;52.080;9.006;2023-04-25T06:12:08;5.70;;;2.50;;
31262;SDS011;17892;52.080;9.006;2023-04-25T06:14:34;7.82;;;1.67;;
31262;SDS011;17892;52.080;9.006;2023-04-25T06:17:00;6.35;;;2.15;;
31262;SDS011;17892;52.080;9.006;2023-04-25T06:19:31;6.32;;;1.77;;
31262;SDS011;17892;52.080;9.006;2023-04-25T06:21:58;10.38;;;2.63;;
31262;SDS011;17892;52.080;9.006;2023-04-25T06:24:23;5.60;;;1.50;;
31262;SDS011;17892;52.080;9.006;2023-04-25T06:26:49;6.75;;;2.10;;
31262;SDS011;17892;52.080;9.006;2023-04-25T06:29:15;5.25;;;1.38;;
31262;SDS011;17892;52.080;9.006;2023-04-25T06:31:41;5.85;;;1.58;;
31262;SDS011;17892;52.080;9.006;2023-04-25T06:34:06;7.85;;;1.75;;
31262;SDS011;17892;52.080;9.006;2023-04-25T06:36:32;5.53;;;2.00;;
31262;SDS011;17892;52.080;9.006;2023-04-25T06:38:58;8.45;;;1.90;;
31262;SDS011;17892;52.080;9.006;2023-04-25T06:41:23;7.55;;;2.97;;
31262;SDS011;17892;52.080;9.006;2023-04-25T06:43:49;4.20;;;1.55;;
31262;SDS011;17892;52.080;9.006;2023-04-25T06:46:15;5.93;;;2.03;;
31262;SDS011;17892;52.080;9.006;2023-04-25T06:48:40;8.85;;;1.77;;
31262;SDS011;17892;52.080;9.006;2023-04-25T06:51:06;6.28;;;1.65;;
31262;SDS011;17892;52.080;9.006;2023-04-25T06:53:32;4.47;;;1.50;;
31262;SDS011;17892;52.080;9.006;2023-04-25T06:55:57;9.00;;;2.13;;
31262;SDS011;17892;52.080;9.006;2023-04-25T06:58:23;9.55;;;1.88;;
31262;SDS011;17892;52.080;9.006;2023-04-25T07:00:49;9.18;;;2.05;;
31262;SDS011;17892;52.080;9.006;2023-04-25T07:03:14;10.23;;;3.20;;
31262;SDS011;17892;52.080;9.006;2023-04-25T07:05:40;7.32;;;2.05;;
31262;SDS011;17892;52.080;9.006;2023-04-25T07:08:06;5.68;;;1.67;;
31262;SDS011;17892;52.080;9.006;2023-04-25T07:10:32;7.78;;;1.80;;
31262;SDS011;17892;52.080;9.006;2023-04-25T07:12:57;7.28;;;1.75;;
31262;SDS011;17892;52.080;9.006;2023-04-25T07:15:23;6.55;;;1.60;;
31262;SDS011;17892;52.080;9.006;2023-04-25T07:17:49;9.02;;;2.22;;
31262;SDS011;17892;52.080;9.006;2023-04-25T07:20:15;4.38;;;2.00;;
31262;SDS011;17892;52.080;9.006;2023-04-25T07:22:41;6.18;;;1.80;;
31262;SDS011;17892;52.080;9.006;2023-04-25T07:25:07;9.25;;;2.70;;
31262;SDS011;17892;52.080;9.006;2023-04-25T07:27:33;7.47;;;1.90;;
31262;SDS011;17892;52.080;9.006;2023-04-25T07:29:59;5.88;;;1.83;;
31262;SDS011;17892;52.080;9.006;2023-04-25T07:32:25;7.97;;;2.15;;
31262;SDS011;17892;52.080;9.006;2023-04-25T07:34:51;7.38;;;2.00;;
31262;SDS011;17892;52.080;9.006;2023-04-25T07:37:17;9.60;;;2.80;;
31262;SDS011;17892;52.080;9.006;2023-04-25T07:39:43;5.35;;;1.55;;
31262;SDS011;17892;52.080;9.006;2023-04-25T07:42:11;7.05;;;2.35;;
31262;SDS011;17892;52.080;9.006;2023-04-25T07:44:37;6.13;;;1.73;;
31262;SDS011;17892;52.080;9.006;2023-04-25T07:47:05;7.35;;;1.48;;
31262;SDS011;17892;52.080;9.006;2023-04-25T07:52:01;4.75;;;1.38;;
31262;SDS011;17892;52.080;9.006;2023-04-25T07:54:28;6.68;;;1.73;;
31262;SDS011;17892;52.080;9.006;2023-04-25T07:56:54;8.85;;;1.88;;
31262;SDS011;17892;52.080;9.006;2023-04-25T07:59:20;9.52;;;2.72;;
31262;SDS011;17892;52.080;9.006;2023-04-25T08:01:46;5.60;;;1.50;;
31262;SDS011;17892;52.080;9.006;2023-04-25T08:04:12;4.20;;;1.30;;
31262;SDS011;17892;52.080;9.006;2023-04-25T08:06:38;6.40;;;1.45;;
31262;SDS011;17892;52.080;9.006;2023-04-25T08:09:05;6.15;;;1.30;;
31262;SDS011;17892;52.080;9.006;2023-04-25T08:11:31;5.55;;;1.48;;
31262;SDS011;17892;52.080;9.006;2023-04-25T08:13:56;7.32;;;1.67;;
31262;SDS011;17892;52.080;9.006;2023-04-25T08:16:22;8.20;;;1.30;;
31262;SDS011;17892;52.080;9.006;2023-04-25T08:18:49;5.20;;;1.42;;
31262;SDS011;17892;52.080;9.006;2023-04-25T08:21:15;5.47;;;1.58;;
31262;SDS011;17892;52.080;9.006;2023-04-25T08:23:41;5.20;;;1.40;;
31262;SDS011;17892;52.080;9.006;2023-04-25T08:26:06;7.93;;;1.58;;
31262;SDS011;17892;52.080;9.006;2023-04-25T08:28:32;3.72;;;1.15;;
31262;SDS011;17892;52.080;9.006;2023-04-25T08:30:58;8.20;;;2.40;;
31262;SDS011;17892;52.080;9.006;2023-04-25T08:33:24;4.40;;;1.25;;
31262;SDS011;17892;52.080;9.006;2023-04-25T08:35:50;7.15;;;1.80;;
31262;SDS011;17892;52.080;9.006;2023-04-25T08:38:17;5.40;;;1.40;;
31262;SDS011;17892;52.080;9.006;2023-04-25T08:40:43;6.25;;;1.50;;
31262;SDS011;17892;52.080;9.006;2023-04-25T08:43:10;6.30;;;1.30;;
31262;SDS011;17892;52.080;9.006;2023-04-25T08:45:39;4.63;;;1.40;;
31262;SDS011;17892;52.080;9.006;2023-04-25T08:48:11;3.28;;;1.10;;
31262;SDS011;17892;52.080;9.006;2023-04-25T08:50:51;5.75;;;1.20;;
31262;SDS011;17892;52.080;9.006;2023-04-25T08:53:22;4.57;;;1.25;;
31262;SDS011;17892;52.080;9.006;2023-04-25T08:55:56;3.60;;;1.40;;
31262;SDS011;17892;52.080;9.006;2023-04-25T08:58:24;4.95;;;1.20;;
31262;SDS011;17892;52.080;9.006;2023-04-25T09:00:50;5.95;;;1.20;;
31262;SDS011;17892;52.080;9.006;2023-04-25T09:03:17;6.55;;;1.35;;
31262;SDS011;17892;52.080;9.006;2023-04-25T09:05:43;6.07;;;1.58;;
31262;SDS011;17892;52.080;9.006;2023-04-25T09:08:09;5.93;;;1.75;;
31262;SDS011;17892;52.080;9.006;2023-04-25T09:10:35;5.70;;;1.20;;
31262;SDS011;17892;52.080;9.006;2023-04-25T09:13:12;5.05;;;1.00;;
31262;SDS011;17892;52.080;9.006;2023-04-25T09:15:52;4.25;;;1.23;;
31262;SDS011;17892;52.080;9.006;2023-04-25T09:18:27;3.78;;;1.23;;
31262;SDS011;17892;52.080;9.006;2023-04-25T09:21:10;2.72;;;0.80;;
31262;SDS011;17892;52.080;9.006;2023-04-25T09:26:08;2.90;;;0.90;;
31262;SDS011;17892;52.080;9.006;2023-04-25T09:28:34;3.65;;;0.90;;
31262;SDS011;17892;52.080;9.006;2023-04-25T09:31:01;3.70;;;1.15;;
31262;SDS011;17892;52.080;9.006;2023-04-25T09:33:30;4.97;;;1.10;;
31262;SDS011;17892;52.080;9.006;2023-04-25T09:36:02;5.95;;;1.67;;
31262;SDS011;17892;52.080;9.006;2023-04-25T09:38:34;4.93;;;1.00;;
31262;SDS011;17892;52.080;9.006;2023-04-25T09:41:11;3.58;;;1.00;;
31262;SDS011;17892;52.080;9.006;2023-04-25T09:43:37;2.53;;;0.80;;
31262;SDS011;17892;52.080;9.006;2023-04-25T09:46:10;4.65;;;1.48;;
31262;SDS011;17892;52.080;9.006;2023-04-25T09:48:36;4.03;;;1.00;;
31262;SDS011;17892;52.080;9.006;2023-04-25T09:53:46;3.35;;;0.85;;
31262;SDS011;17892;52.080;9.006;2023-04-25T09:56:15;6.50;;;1.70;;
31262;SDS011;17892;52.080;9.006;2023-04-25T09:58:41;5.53;;;1.30;;
31262;SDS011;17892;52.080;9.006;2023-04-25T10:01:08;3.65;;;1.00;;
31262;SDS011;17892;52.080;9.006;2023-04-25T10:03:36;3.97;;;1.05;;
31262;SDS011;17892;52.080;9.006;2023-04-25T10:06:07;3.90;;;1.10;;
31262;SDS011;17892;52.080;9.006;2023-04-25T10:08:44;3.88;;;1.10;;
31262;SDS011;17892;52.080;9.006;2023-04-25T10:11:13;4.63;;;1.08;;
31262;SDS011;17892;52.080;9.006;2023-04-25T10:13:40;4.40;;;1.38;;
31262;SDS011;17892;52.080;9.006;2023-04-25T10:16:07;5.63;;;1.60;;
31262;SDS011;17892;52.080;9.006;2023-04-25T10:18:33;5.75;;;1.00;;
31262;SDS011;17892;52.080;9.006;2023-04-25T10:21:00;5.47;;;1.10;;
31262;SDS011;17892;52.080;9.006;2023-04-25T10:23:29;3.70;;;1.30;;
31262;SDS011;17892;52.080;9.006;2023-04-25T10:25:57;8.20;;;1.20;;
31262;SDS011;17892;52.080;9.006;2023-04-25T10:28:23;4.13;;;1.00;;
31262;SDS011;17892;52.080;9.006;2023-04-25T10:31:02;3.33;;;1.20;;
31262;SDS011;17892;52.080;9.006;2023-04-25T10:33:33;4.50;;;1.08;;
31262;SDS011;17892;52.080;9.006;2023-04-25T10:36:11;4.88;;;1.98;;
31262;SDS011;17892;52.080;9.006;2023-04-25T10:38:40;4.05;;;1.20;;
31262;SDS011;17892;52.080;9.006;2023-04-25T10:41:08;4.22;;;1.08;;
31262;SDS011;17892;52.080;9.006;2023-04-25T10:43:39;3.58;;;1.15;;
31262;SDS011;17892;52.080;9.006;2023-04-25T10:46:18;2.35;;;0.82;;
31262;SDS011;17892;52.080;9.006;2023-04-25T10:48:52;6.60;;;1.77;;
31262;SDS011;17892;52.080;9.006;2023-04-25T10:51:24;4.85;;;1.50;;
31262;SDS011;17892;52.080;9.006;2023-04-25T10:54:01;3.35;;;1.20;;
31262;SDS011;17892;52.080;9.006;2023-04-25T10:56:32;4.80;;;0.95;;
31262;SDS011;17892;52.080;9.006;2023-04-25T11:01:29;3.72;;;1.20;;
31262;SDS011;17892;52.080;9.006;2023-04-25T11:04:03;4.25;;;0.90;;
31262;SDS011;17892;52.080;9.006;2023-04-25T11:09:17;4.95;;;1.20;;
31262;SDS011;17892;52.080;9.006;2023-04-25T11:11:42;3.85;;;1.25;;
31262;SDS011;17892;52.080;9.006;2023-04-25T11:14:19;4.10;;;1.10;;
31262;SDS011;17892;52.080;9.006;2023-04-25T11:16:45;3.20;;;1.02;;
31262;SDS011;17892;52.080;9.006;2023-04-25T11:19:11;4.25;;;0.95;;
31262;SDS011;17892;52.080;9.006;2023-04-25T11:21:36;5.10;;;1.65;;
31262;SDS011;17892;52.080;9.006;2023-04-25T11:24:02;2.53;;;0.90;;
31262;SDS011;17892;52.080;9.006;2023-04-25T11:26:29;4.47;;;1.02;;
31262;SDS011;17892;52.080;9.006;2023-04-25T11:28:58;3.72;;;1.08;;
31262;SDS011;17892;52.080;9.006;2023-04-25T11:31:28;3.35;;;1.05;;
31262;SDS011;17892;52.080;9.006;2023-04-25T11:33:56;2.88;;;0.80;;
31262;SDS011;17892;52.080;9.006;2023-04-25T11:36:26;5.05;;;0.77;;
31262;SDS011;17892;52.080;9.006;2023-04-25T11:41:19;1.90;;;0.60;;
31262;SDS011;17892;52.080;9.006;2023-04-25T11:43:45;4.25;;;1.00;;
31262;SDS011;17892;52.080;9.006;2023-04-25T11:46:11;3.70;;;1.00;;
31262;SDS011;17892;52.080;9.006;2023-04-25T11:48:38;3.05;;;1.10;;
31262;SDS011;17892;52.080;9.006;2023-04-25T11:51:04;3.50;;;0.80;;
31262;SDS011;17892;52.080;9.006;2023-04-25T11:53:30;3.47;;;0.98;;
31262;SDS011;17892;52.080;9.006;2023-04-25T11:55:56;3.92;;;0.90;;
31262;SDS011;17892;52.080;9.006;2023-04-25T11:58:22;4.40;;;0.68;;
31262;SDS011;17892;52.080;9.006;2023-04-25T12:00:48;3.45;;;1.00;;
31262;SDS011;17892;52.080;9.006;2023-04-25T12:03:13;3.08;;;0.82;;
31262;SDS011;17892;52.080;9.006;2023-04-25T12:05:39;3.38;;;1.15;;
31262;SDS011;17892;52.080;9.006;2023-04-25T12:08:15;3.17;;;0.80;;
31262;SDS011;17892;52.080;9.006;2023-04-25T12:10:42;3.63;;;0.88;;
31262;SDS011;17892;52.080;9.006;2023-04-25T12:13:20;2.47;;;0.80;;
31262;SDS011;17892;52.080;9.006;2023-04-25T12:15:48;3.05;;;0.90;;
31262;SDS011;17892;52.080;9.006;2023-04-25T12:18:14;2.83;;;0.90;;
31262;SDS011;17892;52.080;9.006;2023-04-25T12:20:39;4.00;;;1.15;;
31262;SDS011;17892;52.080;9.006;2023-04-25T12:23:07;3.60;;;0.95;;
31262;SDS011;17892;52.080;9.006;2023-04-25T12:25:37;2.03;;;0.60;;
31262;SDS011;17892;52.080;9.006;2023-04-25T12:33:19;2.35;;;0.70;;
31262;SDS011;17892;52.080;9.006;2023-04-25T12:35:44;3.45;;;0.70;;
31262;SDS011;17892;52.080;9.006;2023-04-25T12:38:10;3.78;;;1.10;;
31262;SDS011;17892;52.080;9.006;2023-04-25T12:40:36;2.40;;;0.70;;
31262;SDS011;17892;52.080;9.006;2023-04-25T12:43:02;4.75;;;0.93;;
31262;SDS011;17892;52.080;9.006;2023-04-25T12:45:27;4.28;;;1.30;;
31262;SDS011;17892;52.080;9.006;2023-04-25T12:47:53;2.92;;;0.63;;
31262;SDS011;17892;52.080;9.006;2023-04-25T12:50:19;3.90;;;1.00;;
31262;SDS011;17892;52.080;9.006;2023-04-25T12:52:44;4.07;;;0.80;;
31262;SDS011;17892;52.080;9.006;2023-04-25T12:55:10;2.20;;;0.70;;
31262;SDS011;17892;52.080;9.006;2023-04-25T12:57:36;4.03;;;1.00;;
31262;SDS011;17892;52.080;9.006;2023-04-25T13:00:02;2.25;;;0.55;;
31262;SDS011;17892;52.080;9.006;2023-04-25T13:02:29;2.65;;;0.68;;
31262;SDS011;17892;52.080;9.006;2023-04-25T13:04:55;3.92;;;0.90;;
31262;SDS011;17892;52.080;9.006;2023-04-25T13:07:20;2.47;;;0.63;;
31262;SDS011;17892;52.080;9.006;2023-04-25T13:09:46;1.73;;;0.77;;
31262;SDS011;17892;52.080;9.006;2023-04-25T13:12:11;4.25;;;0.80;;
31262;SDS011;17892;52.080;9.006;2023-04-25T13:14:37;3.00;;;0.60;;
31262;SDS011;17892;52.080;9.006;2023-04-25T13:17:03;2.47;;;0.70;;
31262;SDS011;17892;52.080;9.006;2023-04-25T13:19:29;2.45;;;0.80;;
31262;SDS011;17892;52.080;9.006;2023-04-25T13:21:55;2.70;;;0.82;;
31262;SDS011;17892;52.080;9.006;2023-04-25T13:24:21;2.65;;;0.85;;
31262;SDS011;17892;52.080;9.006;2023-04-25T13:26:47;4.50;;;0.65;;
31262;SDS011;17892;52.080;9.006;2023-04-25T13:29:12;3.33;;;0.95;;
31262;SDS011;17892;52.080;9.006;2023-04-25T13:31:38;4.45;;;0.90;;
31262;SDS011;17892;52.080;9.006;2023-04-25T13:34:04;2.13;;;0.80;;
31262;SDS011;17892;52.080;9.006;2023-04-25T13:36:29;3.28;;;0.90;;
31262;SDS011;17892;52.080;9.006;2023-04-25T13:38:56;2.50;;;0.73;;
31262;SDS011;17892;52.080;9.006;2023-04-25T13:41:22;2.42;;;0.63;;
31262;SDS011;17892;52.080;9.006;2023-04-25T13:43:48;2.80;;;0.88;;
31262;SDS011;17892;52.080;9.006;2023-04-25T13:46:13;2.38;;;0.75;;
31262;SDS011;17892;52.080;9.006;2023-04-25T13:48:40;3.55;;;0.68;;
31262;SDS011;17892;52.080;9.006;2023-04-25T13:51:11;3.58;;;0.77;;
31262;SDS011;17892;52.080;9.006;2023-04-25T13:53:38;2.83;;;0.75;;
31262;SDS011;17892;52.080;9.006;2023-04-25T13:56:04;2.78;;;0.70;;
31262;SDS011;17892;52.080;9.006;2023-04-25T13:58:30;2.72;;;0.80;;
31262;SDS011;17892;52.080;9.006;2023-04-25T14:00:57;1.58;;;0.50;;
31262;SDS011;17892;52.080;9.006;2023-04-25T14:03:22;1.98;;;0.60;;
31262;SDS011;17892;52.080;9.006;2023-04-25T14:05:48;3.10;;;0.80;;
31262;SDS011;17892;52.080;9.006;2023-04-25T14:08:14;2.28;;;0.60;;
31262;SDS011;17892;52.080;9.006;2023-04-25T14:10:40;2.47;;;0.80;;
31262;SDS011;17892;52.080;9.006;2023-04-25T14:13:05;1.92;;;0.50;;
31262;SDS011;17892;52.080;9.006;2023-04-25T14:15:32;3.97;;;0.80;;
31262;SDS011;17892;52.080;9.006;2023-04-25T14:17:58;2.80;;;0.60;;
31262;SDS011;17892;52.080;9.006;2023-04-25T14:20:25;2.67;;;0.50;;
31262;SDS011;17892;52.080;9.006;2023-04-25T14:22:51;2.35;;;0.70;;
31262;SDS011;17892;52.080;9.006;2023-04-25T14:25:19;2.47;;;0.63;;
31262;SDS011;17892;52.080;9.006;2023-04-25T14:27:45;2.25;;;0.68;;
31262;SDS011;17892;52.080;9.006;2023-04-25T14:30:14;2.90;;;0.50;;
31262;SDS011;17892;52.080;9.006;2023-04-25T14:32:45;2.53;;;0.60;;
31262;SDS011;17892;52.080;9.006;2023-04-25T14:35:11;1.83;;;0.60;;
31262;SDS011;17892;52.080;9.006;2023-04-25T14:37:37;2.88;;;0.60;;
31262;SDS011;17892;52.080;9.006;2023-04-25T14:40:03;2.42;;;0.63;;
31262;SDS011;17892;52.080;9.006;2023-04-25T14:42:30;2.40;;;1.17;;
31262;SDS011;17892;52.080;9.006;2023-04-25T14:44:56;3.08;;;0.60;;
31262;SDS011;17892;52.080;9.006;2023-04-25T14:47:22;3.38;;;0.70;;
31262;SDS011;17892;52.080;9.006;2023-04-25T14:49:48;1.10;;;0.50;;
31262;SDS011;17892;52.080;9.006;2023-04-25T14:52:18;2.00;;;0.75;;
31262;SDS011;17892;52.080;9.006;2023-04-25T14:54:47;1.95;;;0.63;;
31262;SDS011;17892;52.080;9.006;2023-04-25T14:57:13;2.60;;;0.60;;
31262;SDS011;17892;52.080;9.006;2023-04-25T14:59:40;3.58;;;0.93;;
31262;SDS011;17892;52.080;9.006;2023-04-25T15:02:06;1.77;;;0.80;;
31262;SDS011;17892;52.080;9.006;2023-04-25T15:04:31;6.07;;;1.40;;
31262;SDS011;17892;52.080;9.006;2023-04-25T15:06:57;3.92;;;1.13;;